createdAt,value
2023-04-15T00:01:00.124Z,10.25
2023-04-15T00:03:27.079Z,11.75
2023-04-15T00:05:53.882Z,13.18
2023-04-15T00:08:20.177Z,10.55
2023-04-15T00:13:12.874Z,11.95
2023-04-15T00:15:39.301Z,13.40
2023-04-15T00:18:05.660Z,12.15
2023-04-15T00:20:31.995Z,11.63
2023-04-15T00:25:24.626Z,10.48
2023-04-15T00:27:50.990Z,10.93
2023-04-15T00:30:17.388Z,12.50
2023-04-15T00:32:43.749Z,11.75
2023-04-15T00:35:10.164Z,11.07
2023-04-15T00:37:36.541Z,11.43
2023-04-15T00:40:03.212Z,13.38
2023-04-15T00:42:29.774Z,10.73
2023-04-15T00:44:56.121Z,10.88
2023-04-15T00:49:49.152Z,11.40
2023-04-15T00:52:15.524Z,11.52
2023-04-15T00:54:41.885Z,12.45
2023-04-15T00:59:34.614Z,11.50
2023-04-15T01:04:27.641Z,12.75
2023-04-15T01:06:54.103Z,13.63
2023-04-15T01:09:20.438Z,10.90
2023-04-15T01:14:13.574Z,9.05
2023-04-15T01:16:39.935Z,10.02
2023-04-15T01:21:37.532Z,10.60
2023-04-15T01:24:09.338Z,10.60
2023-04-15T01:26:39.472Z,12.90
2023-04-15T01:29:05.971Z,12.93
2023-04-15T01:31:32.658Z,12.55
2023-04-15T01:34:00.790Z,12.15
2023-04-15T01:36:27.145Z,11.82
2023-04-15T01:41:29.062Z,10.68
2023-04-15T01:43:55.431Z,11.43
2023-04-15T01:48:48.056Z,12.88
2023-04-15T01:53:40.752Z,12.98
2023-04-15T01:56:07.495Z,11.93
2023-04-15T01:58:33.925Z,11.45
2023-04-15T02:01:00.394Z,9.32
2023-04-15T02:03:26.829Z,10.63
2023-04-15T02:05:53.234Z,11.35
2023-04-15T02:10:45.903Z,11.73
2023-04-15T02:15:38.555Z,9.48
2023-04-15T02:18:05.143Z,12.15
2023-04-15T02:20:32.244Z,8.90
2023-04-15T02:22:58.580Z,10.32
2023-04-15T02:25:24.935Z,10.50
2023-04-15T02:30:17.686Z,9.85
2023-04-15T02:32:44.126Z,10.45
2023-04-15T02:35:10.641Z,9.30
2023-04-15T02:37:37.983Z,12.05
2023-04-15T02:40:04.811Z,13.63
2023-04-15T02:42:31.113Z,9.93
2023-04-15T02:44:57.466Z,14.63
2023-04-15T02:49:50.142Z,11.98
2023-04-15T02:54:42.864Z,11.43
2023-04-15T02:57:09.243Z,11.48
2023-04-15T03:02:01.962Z,13.07
2023-04-15T03:04:28.474Z,11.68
2023-04-15T03:09:21.012Z,10.48
2023-04-15T03:14:13.708Z,11.05
2023-04-15T03:16:40.078Z,14.88
2023-04-15T03:21:32.739Z,11.25
2023-04-15T03:26:30.275Z,14.13
2023-04-15T03:28:57.108Z,12.07
2023-04-15T03:31:23.841Z,13.45
2023-04-15T03:33:50.276Z,12.00
2023-04-15T03:38:43.348Z,15.38
2023-04-15T03:41:09.728Z,13.75
2023-04-15T03:46:02.663Z,11.93
2023-04-15T03:48:29.084Z,12.07
2023-04-15T03:50:55.444Z,11.75
2023-04-15T03:55:48.147Z,14.48
2023-04-15T03:58:14.781Z,11.27
2023-04-15T04:00:41.182Z,16.67
2023-04-15T04:03:07.764Z,13.70
2023-04-15T04:05:34.668Z,13.68
2023-04-15T04:08:01.024Z,12.55
2023-04-15T04:12:53.696Z,14.45
2023-04-15T04:17:46.353Z,15.77
2023-04-15T04:22:39.662Z,11.05
2023-04-15T04:25:06.936Z,14.38
2023-04-15T04:27:33.283Z,15.00
2023-04-15T04:32:26.022Z,12.75
2023-04-15T04:34:52.453Z,14.27
2023-04-15T04:37:18.820Z,16.13
2023-04-15T04:39:45.159Z,14.02
2023-04-15T04:44:37.796Z,13.93
2023-04-15T04:49:30.445Z,14.98
2023-04-15T04:51:57.484Z,16.75
2023-04-15T04:54:23.903Z,17.00
2023-04-15T04:56:50.322Z,18.35
2023-04-15T04:59:17.027Z,16.33
2023-04-15T05:01:44.613Z,17.95
2023-04-15T05:04:11.186Z,16.00
2023-04-15T05:06:37.730Z,14.98
2023-04-15T05:09:04.169Z,28.67
2023-04-15T05:11:30.612Z,15.63
2023-04-15T05:13:56.962Z,14.07
2023-04-15T05:18:49.678Z,13.98
2023-04-15T05:23:42.888Z,13.35
2023-04-15T05:26:09.267Z,12.98
2023-04-15T05:28:35.580Z,14.77
2023-04-15T05:33:28.341Z,15.95
2023-04-15T05:35:54.693Z,16.23
2023-04-15T05:38:21.077Z,15.68
2023-04-15T05:40:47.808Z,13.18
2023-04-15T05:43:14.174Z,14.70
2023-04-15T05:45:40.517Z,15.20
2023-04-15T05:48:07.033Z,14.80
2023-04-15T05:50:33.350Z,14.68
2023-04-15T05:53:00.250Z,12.65
2023-04-15T05:55:26.559Z,13.10
2023-04-15T05:57:52.972Z,13.95
2023-04-15T06:00:19.537Z,14.30
2023-04-15T06:02:46.134Z,12.57
2023-04-15T06:05:12.691Z,13.15
2023-04-15T06:07:39.238Z,11.80
2023-04-15T06:10:06.322Z,13.27
2023-04-15T06:12:32.955Z,15.13
2023-04-15T06:15:00.299Z,13.65
2023-04-15T06:17:26.934Z,13.48
2023-04-15T06:19:53.533Z,13.02
2023-04-15T06:22:19.910Z,13.82
2023-04-15T06:24:46.310Z,13.32
2023-04-15T06:27:12.682Z,12.63
2023-04-15T06:29:39.007Z,13.77
2023-04-15T06:32:05.586Z,13.38
2023-04-15T06:34:31.962Z,14.57
2023-04-15T06:36:58.338Z,14.15
2023-04-15T06:39:24.796Z,13.48
2023-04-15T06:41:51.185Z,13.73
2023-04-15T06:44:17.561Z,15.48
2023-04-15T06:46:44.221Z,14.13
2023-04-15T06:49:10.966Z,15.75
2023-04-15T06:51:37.469Z,13.45
2023-04-15T06:54:04.630Z,15.80
2023-04-15T06:56:31.264Z,15.77
2023-04-15T06:58:57.667Z,16.67
2023-04-15T07:01:24.166Z,14.57
2023-04-15T07:03:50.661Z,15.85
2023-04-15T07:06:17.062Z,15.82
2023-04-15T07:08:43.407Z,16.42
2023-04-15T07:11:09.797Z,15.95
2023-04-15T07:13:36.171Z,17.55
2023-04-15T07:16:02.605Z,14.55
2023-04-15T07:18:28.956Z,11.82
2023-04-15T07:20:55.413Z,12.45
2023-04-15T07:23:21.811Z,10.40
2023-04-15T07:25:48.130Z,14.82
2023-04-15T07:28:14.510Z,10.27
2023-04-15T07:30:40.884Z,10.07
2023-04-15T07:33:07.349Z,12.32
2023-04-15T07:35:33.838Z,10.30
2023-04-15T07:38:00.255Z,10.88
2023-04-15T07:40:27.108Z,9.80
2023-04-15T07:42:53.529Z,11.00
2023-04-15T07:45:19.977Z,10.90
2023-04-15T07:47:46.375Z,9.70
2023-04-15T07:50:12.709Z,8.65
2023-04-15T07:52:39.029Z,7.13
2023-04-15T07:55:07.042Z,13.02
2023-04-15T07:57:33.415Z,12.68
2023-04-15T08:00:00.772Z,11.00
2023-04-15T08:02:27.375Z,8.48
2023-04-15T08:04:53.987Z,7.72
2023-04-15T08:07:20.364Z,6.65
2023-04-15T08:09:46.779Z,7.68
2023-04-15T08:12:13.139Z,8.73
2023-04-15T08:14:39.881Z,8.82
2023-04-15T08:17:06.210Z,6.18
2023-04-15T08:19:32.653Z,8.63
2023-04-15T08:21:59.009Z,7.97
2023-04-15T08:24:25.405Z,7.90
2023-04-15T08:26:52.373Z,7.03
2023-04-15T08:29:18.716Z,7.38
2023-04-15T08:31:45.250Z,7.90
2023-04-15T08:34:12.025Z,8.15
2023-04-15T08:36:38.387Z,7.32
2023-04-15T08:39:05.080Z,12.40
2023-04-15T08:41:40.303Z,6.82
2023-04-15T08:44:06.735Z,8.95
2023-04-15T08:46:33.448Z,8.07
2023-04-15T08:49:01.357Z,6.97
2023-04-15T08:51:28.774Z,7.25
2023-04-15T08:53:55.470Z,9.60
2023-04-15T08:56:25.636Z,8.00
2023-04-15T08:58:53.136Z,10.20
2023-04-15T09:01:20.093Z,6.55
2023-04-15T09:03:49.394Z,11.93
2023-04-15T09:06:17.391Z,14.63
2023-04-15T09:08:46.064Z,6.90
2023-04-15T09:11:12.433Z,8.13
2023-04-15T09:13:39.152Z,5.93
2023-04-15T09:16:06.659Z,9.60
2023-04-15T09:18:35.081Z,5.60
2023-04-15T09:21:12.086Z,6.97
2023-04-15T09:23:40.526Z,7.53
2023-04-15T09:26:07.823Z,8.02
2023-04-15T09:28:41.903Z,6.80
2023-04-15T09:31:08.376Z,5.13
2023-04-15T09:33:34.881Z,6.47
2023-04-15T09:36:05.768Z,7.43
2023-04-15T09:38:32.563Z,6.68
2023-04-15T09:40:59.238Z,9.00
2023-04-15T09:43:41.224Z,7.25
2023-04-15T09:46:07.782Z,7.15
2023-04-15T09:48:34.248Z,7.70
2023-04-15T09:51:01.897Z,6.57
2023-04-15T09:53:30.554Z,7.65
2023-04-15T09:56:00.200Z,6.40
2023-04-15T09:58:28.358Z,8.68
2023-04-15T10:00:56.381Z,5.50
2023-04-15T10:03:22.852Z,6.07
2023-04-15T10:05:51.601Z,6.20
2023-04-15T10:08:33.300Z,6.22
2023-04-15T10:11:02.476Z,5.22
2023-04-15T10:13:31.415Z,8.23
2023-04-15T10:16:00.444Z,6.30
2023-04-15T10:18:28.548Z,3.75
2023-04-15T10:20:55.659Z,4.75
2023-04-15T10:23:23.406Z,4.60
2023-04-15T10:25:52.685Z,6.68
2023-04-15T10:28:20.786Z,4.57
2023-04-15T10:30:48.368Z,6.05
2023-04-15T10:33:16.704Z,5.88
2023-04-15T10:35:44.019Z,4.40
2023-04-15T10:38:38.951Z,6.57
2023-04-15T10:41:21.197Z,6.53
2023-04-15T10:43:50.249Z,4.75
2023-04-15T10:46:38.064Z,6.13
2023-04-15T10:49:12.154Z,6.30
2023-04-15T10:51:42.362Z,5.70
2023-04-15T10:54:16.943Z,4.22
2023-04-15T10:56:50.861Z,7.07
2023-04-15T10:59:17.234Z,4.82
2023-04-15T11:02:02.790Z,5.80
2023-04-15T11:04:56.691Z,3.72
2023-04-15T11:07:40.084Z,6.70
2023-04-15T11:10:32.273Z,5.05
2023-04-15T11:13:00.699Z,4.22
2023-04-15T11:15:38.253Z,6.10
2023-04-15T11:18:10.607Z,4.85
2023-04-15T11:20:38.274Z,3.95
2023-04-15T11:23:08.175Z,3.40
2023-04-15T11:25:42.839Z,6.03
2023-04-15T11:28:09.254Z,6.35
2023-04-15T11:30:37.195Z,3.50
2023-04-15T11:33:05.767Z,5.85
2023-04-15T11:35:32.617Z,4.65
2023-04-15T11:38:03.028Z,3.70
2023-04-15T11:40:30.351Z,3.72
2023-04-15T11:43:19.174Z,4.55
2023-04-15T11:45:56.060Z,3.47
2023-04-15T11:48:27.188Z,2.88
2023-04-15T11:50:55.570Z,1.70
2023-04-15T11:53:22.919Z,3.55
2023-04-15T11:55:51.267Z,5.00
2023-04-15T11:58:20.801Z,3.05
2023-04-15T12:00:54.447Z,2.95
2023-04-15T12:03:31.673Z,2.03
2023-04-15T12:06:05.417Z,3.38
2023-04-15T12:08:59.539Z,3.17
2023-04-15T12:11:38.005Z,3.58
2023-04-15T12:14:09.260Z,3.92
2023-04-15T12:16:46.713Z,3.35
2023-04-15T12:19:44.619Z,2.63
2023-04-15T12:22:16.298Z,3.63
2023-04-15T12:24:44.452Z,4.03
2023-04-15T12:27:12.355Z,3.47
2023-04-15T12:29:40.518Z,1.88
2023-04-15T12:32:14.663Z,3.15
2023-04-15T12:34:43.022Z,1.35
2023-04-15T12:37:11.284Z,1.98
2023-04-15T12:39:40.209Z,4.00
2023-04-15T12:42:07.354Z,3.85
2023-04-15T12:44:34.146Z,3.17
2023-04-15T12:47:00.696Z,1.15
2023-04-15T12:49:27.614Z,2.03
2023-04-15T12:51:56.576Z,1.23
2023-04-15T12:54:23.097Z,1.88
2023-04-15T12:56:50.498Z,5.40
2023-04-15T12:59:17.610Z,1.65
2023-04-15T13:01:44.997Z,2.78
2023-04-15T13:04:11.577Z,3.33
2023-04-15T13:06:38.030Z,3.00
2023-04-15T13:09:05.965Z,2.45
2023-04-15T13:11:33.448Z,3.15
2023-04-15T13:14:05.505Z,2.05
2023-04-15T13:16:33.388Z,2.35
2023-04-15T13:19:00.405Z,2.08
2023-04-15T13:21:27.579Z,2.40
2023-04-15T13:23:54.530Z,4.28
2023-04-15T13:26:21.031Z,1.83
2023-04-15T13:28:47.797Z,1.20
2023-04-15T13:31:14.265Z,2.63
2023-04-15T13:33:40.645Z,1.50
2023-04-15T13:36:07.042Z,3.00
2023-04-15T13:38:33.365Z,1.73
2023-04-15T13:40:59.784Z,2.22
2023-04-15T13:43:26.166Z,3.13
2023-04-15T13:45:52.612Z,3.67
2023-04-15T13:48:19.016Z,3.53
2023-04-15T13:50:45.425Z,4.60
2023-04-15T13:53:12.538Z,3.10
2023-04-15T13:55:39.094Z,2.65
2023-04-15T13:58:05.396Z,7.10
2023-04-15T14:00:31.907Z,6.70
2023-04-15T14:02:58.402Z,4.68
2023-04-15T14:05:24.811Z,5.47
2023-04-15T14:07:51.217Z,6.97
2023-04-15T14:10:17.778Z,1.80
2023-04-15T14:12:44.153Z,3.15
2023-04-15T14:15:10.608Z,2.80
2023-04-15T14:17:37.056Z,7.07
2023-04-15T14:20:03.810Z,4.13
2023-04-15T14:22:30.180Z,2.58
2023-04-15T14:24:56.530Z,5.85
2023-04-15T14:27:23.105Z,5.63
2023-04-15T14:29:49.465Z,6.28
2023-04-15T14:32:17.271Z,6.78
2023-04-15T14:34:43.715Z,3.38
2023-04-15T14:37:10.186Z,6.00
2023-04-15T14:39:36.582Z,5.20
2023-04-15T14:42:03.003Z,4.43
2023-04-15T14:44:29.370Z,4.18
2023-04-15T14:46:55.897Z,6.90
2023-04-15T14:49:22.281Z,5.47
2023-04-15T14:51:48.629Z,6.57
2023-04-15T14:54:15.075Z,3.30
2023-04-15T14:56:41.440Z,2.97
2023-04-15T14:59:10.088Z,5.55
2023-04-15T15:01:36.638Z,3.60
2023-04-15T15:04:03.984Z,6.43
2023-04-15T15:06:30.523Z,5.53
2023-04-15T15:08:56.858Z,7.55
2023-04-15T15:11:23.240Z,3.70
2023-04-15T15:13:49.625Z,6.15
2023-04-15T15:16:16.123Z,3.88
2023-04-15T15:18:42.481Z,3.55
2023-04-15T15:21:08.816Z,3.35
2023-04-15T15:23:35.226Z,3.65
2023-04-15T15:26:01.610Z,3.42
2023-04-15T15:28:27.988Z,3.42
2023-04-15T15:30:54.541Z,2.95
2023-04-15T15:33:20.919Z,4.55
2023-04-15T15:35:47.367Z,4.30
2023-04-15T15:38:13.715Z,3.65
2023-04-15T15:40:40.189Z,4.45
2023-04-15T15:43:06.485Z,2.75
2023-04-15T15:45:32.962Z,2.72
2023-04-15T15:48:01.756Z,6.30
2023-04-15T15:50:28.172Z,3.85
2023-04-15T15:52:54.611Z,3.40
2023-04-15T15:55:20.994Z,3.95
2023-04-15T15:57:47.379Z,4.45
2023-04-15T16:00:14.183Z,8.65
2023-04-15T16:03:05.223Z,4.93
2023-04-15T16:05:27.082Z,5.45
2023-04-15T16:07:53.445Z,6.45
2023-04-15T16:10:19.802Z,5.80
2023-04-15T16:12:46.229Z,4.00
2023-04-15T16:15:12.926Z,4.30
2023-04-15T16:17:39.413Z,4.45
2023-04-15T16:20:06.383Z,2.53
2023-04-15T16:22:34.030Z,4.78
2023-04-15T16:25:00.459Z,10.00
2023-04-15T16:27:27.446Z,5.28
2023-04-15T16:29:53.890Z,7.55
2023-04-15T16:32:20.490Z,7.65
2023-04-15T16:34:47.527Z,10.65
2023-04-15T16:37:13.904Z,5.60
2023-04-15T16:39:40.282Z,5.90
2023-04-15T16:42:06.621Z,5.07
2023-04-15T16:44:32.976Z,6.75
2023-04-15T16:46:59.337Z,7.05
2023-04-15T16:49:25.658Z,6.28
2023-04-15T16:51:54.085Z,5.85
2023-04-15T16:54:20.928Z,3.95
2023-04-15T16:56:47.303Z,3.92
2023-04-15T16:59:13.638Z,1.63
2023-04-15T17:01:40.218Z,2.67
2023-04-15T17:04:07.205Z,8.63
2023-04-15T17:06:33.610Z,7.00
2023-04-15T17:08:59.962Z,3.45
2023-04-15T17:11:28.031Z,6.97
2023-04-15T17:13:54.387Z,8.38
2023-04-15T17:16:20.846Z,5.63
2023-04-15T17:18:47.203Z,4.57
2023-04-15T17:21:13.559Z,4.78
2023-04-15T17:23:39.910Z,4.97
2023-04-15T17:26:06.252Z,3.03
2023-04-15T17:28:32.722Z,3.42
2023-04-15T17:30:59.210Z,2.20
2023-04-15T17:34:00.341Z,4.53
2023-04-15T17:36:13.015Z,5.10
2023-04-15T17:38:39.391Z,3.65
2023-04-15T17:41:05.807Z,8.30
2023-04-15T17:43:32.248Z,6.93
2023-04-15T17:45:58.732Z,3.53
2023-04-15T17:48:25.816Z,4.05
2023-04-15T17:50:52.229Z,3.75
2023-04-15T17:53:18.849Z,5.18
2023-04-15T17:55:45.379Z,3.42
2023-04-15T17:58:11.918Z,3.78
2023-04-15T18:00:38.415Z,5.20
2023-04-15T18:03:04.868Z,6.95
2023-04-15T18:05:31.309Z,4.53
2023-04-15T18:07:57.671Z,4.65
2023-04-15T18:10:24.044Z,5.45
2023-04-15T18:12:50.372Z,3.75
2023-04-15T18:15:16.824Z,6.38
2023-04-15T18:17:43.270Z,4.10
2023-04-15T18:20:10.084Z,11.60
2023-04-15T18:22:36.447Z,5.75
2023-04-15T18:25:03.387Z,6.45
2023-04-15T18:27:34.170Z,6.13
2023-04-15T18:30:00.654Z,4.80
2023-04-15T18:32:27.063Z,3.72
2023-04-15T18:34:53.436Z,10.05
2023-04-15T18:37:19.784Z,7.18
2023-04-15T18:39:46.113Z,6.03
2023-04-15T18:42:12.512Z,8.27
2023-04-15T18:44:38.895Z,7.07
2023-04-15T18:47:05.397Z,6.72
2023-04-15T18:49:32.236Z,6.90
2023-04-15T18:51:59.075Z,6.72
2023-04-15T18:54:25.466Z,5.28
2023-04-15T18:56:51.860Z,8.02
2023-04-15T18:59:29.325Z,8.30
2023-04-15T19:01:57.161Z,9.20
2023-04-15T19:04:24.579Z,9.20
2023-04-15T19:06:51.155Z,15.55
2023-04-15T19:09:17.502Z,11.07
2023-04-15T19:11:44.010Z,10.43
2023-04-15T19:14:10.661Z,6.68
2023-04-15T19:16:37.181Z,6.63
2023-04-15T19:19:03.878Z,8.93
2023-04-15T19:21:31.937Z,7.53
2023-04-15T19:23:58.681Z,7.90
2023-04-15T19:26:25.172Z,6.47
2023-04-15T19:28:51.555Z,5.95
2023-04-15T19:31:17.964Z,8.77
2023-04-15T19:33:44.388Z,9.55
2023-04-15T19:36:10.769Z,5.13
2023-04-15T19:38:37.099Z,3.47
2023-04-15T19:41:03.974Z,6.03
2023-04-15T19:43:32.484Z,10.07
2023-04-15T19:45:58.993Z,8.75
2023-04-15T19:48:25.636Z,10.25
2023-04-15T19:50:51.975Z,6.20
2023-04-15T19:53:18.408Z,8.88
2023-04-15T19:55:44.779Z,9.27
2023-04-15T19:58:11.128Z,9.82
2023-04-15T20:00:37.990Z,7.50
2023-04-15T20:03:04.950Z,6.18
2023-04-15T20:05:31.445Z,7.13
2023-04-15T20:07:59.800Z,3.22
2023-04-15T20:10:26.373Z,7.95
2023-04-15T20:12:53.476Z,6.63
2023-04-15T20:15:20.490Z,12.70
2023-04-15T20:17:46.966Z,8.05
2023-04-15T20:20:13.530Z,9.73
2023-04-15T20:22:39.980Z,10.55
2023-04-15T20:25:06.929Z,7.78
2023-04-15T20:27:33.345Z,10.07
2023-04-15T20:29:59.751Z,12.48
2023-04-15T20:32:26.240Z,9.18
2023-04-15T20:34:52.550Z,10.07
2023-04-15T20:39:45.229Z,6.10
2023-04-15T20:42:11.619Z,13.80
2023-04-15T20:44:37.990Z,16.05
2023-04-15T20:47:08.063Z,10.05
2023-04-15T20:49:35.664Z,7.82
2023-04-15T20:52:02.862Z,12.35
2023-04-15T20:54:29.205Z,7.60
2023-04-15T20:56:56.529Z,10.68
2023-04-15T20:59:22.938Z,11.40
2023-04-15T21:01:49.541Z,13.80
2023-04-15T21:04:16.003Z,12.23
2023-04-15T21:06:42.520Z,7.75
2023-04-15T21:09:08.850Z,10.48
2023-04-15T21:11:53.399Z,13.02
2023-04-15T21:14:21.627Z,10.60
2023-04-15T21:16:48.244Z,14.27
2023-04-15T21:19:14.710Z,8.73
2023-04-15T21:21:41.081Z,16.75
2023-04-15T21:24:07.594Z,12.80
2023-04-15T21:26:34.071Z,18.52
2023-04-15T21:29:00.436Z,9.57
2023-04-15T21:31:26.886Z,14.45
2023-04-15T21:33:53.292Z,15.18
2023-04-15T21:36:19.594Z,15.10
2023-04-15T21:38:45.962Z,14.23
2023-04-15T21:41:12.356Z,11.70
2023-04-15T21:43:38.724Z,16.65
2023-04-15T21:46:22.178Z,15.02
2023-04-15T21:48:50.417Z,18.88
2023-04-15T21:51:16.866Z,10.25
2023-04-15T21:53:43.250Z,13.73
2023-04-15T21:56:09.633Z,17.92
2023-04-15T21:58:36.061Z,16.02
2023-04-15T22:01:03.660Z,15.35
2023-04-15T22:03:31.689Z,19.10
2023-04-15T22:05:58.100Z,13.07
2023-04-15T22:08:24.486Z,17.70
2023-04-15T22:10:50.953Z,14.45
2023-04-15T22:13:18.022Z,18.02
2023-04-15T22:15:44.363Z,15.25
2023-04-15T22:18:12.408Z,17.75
2023-04-15T22:20:39.226Z,17.63
2023-04-15T22:23:05.719Z,23.05
2023-04-15T22:25:32.074Z,17.45
2023-04-15T22:27:58.413Z,21.58
2023-04-15T22:30:25.058Z,20.08
2023-04-15T22:32:51.629Z,18.77
2023-04-15T22:35:18.135Z,23.10
2023-04-15T22:37:44.531Z,21.63
2023-04-15T22:40:11.327Z,21.85
2023-04-15T22:42:37.689Z,16.98
2023-04-15T22:45:04.410Z,18.70
2023-04-15T22:47:30.822Z,18.55
2023-04-15T22:49:57.189Z,19.50
2023-04-15T22:52:30.057Z,26.63
2023-04-15T22:54:57.263Z,27.00
2023-04-15T22:57:23.652Z,16.13
2023-04-15T22:59:50.035Z,22.17
2023-04-15T23:02:16.435Z,27.75
2023-04-15T23:04:42.934Z,34.80
2023-04-15T23:07:09.371Z,23.98
2023-04-15T23:09:35.796Z,26.58
2023-04-15T23:12:02.940Z,23.38
2023-04-15T23:14:29.686Z,24.73
2023-04-15T23:16:57.432Z,27.13
2023-04-15T23:19:24.294Z,24.50
2023-04-15T23:21:50.965Z,23.80
2023-04-15T23:24:17.365Z,28.83
2023-04-15T23:26:43.740Z,23.23
2023-04-15T23:29:10.277Z,25.65
2023-04-15T23:31:36.852Z,27.17
2023-04-15T23:34:03.863Z,26.83
2023-04-15T23:36:30.288Z,21.52
2023-04-15T23:38:56.906Z,26.52
2023-04-15T23:41:23.312Z,26.85
2023-04-15T23:43:49.706Z,24.33
2023-04-15T23:46:16.711Z,17.85
2023-04-15T23:48:43.068Z,28.80
2023-04-15T23:51:09.477Z,27.42
2023-04-15T23:53:35.867Z,32.67
2023-04-15T23:56:02.240Z,22.92
2023-04-15T23:58:28.783Z,24.38
